Time;durP1;ratioP1;P1;durP2;ratioP2;P2;SDS_P1;SDS_P2;PMS_P1;PMS_P2;Temp;Humidity;BMP_temperature;BMP_pressure;BME280_temperature;BME280_humidity;BME280_pressure;Samples;Min_cycle;Max_cycle;Signal;HPM_P1;HPM_P2
2023/06/30 00:00:15;;;;;;;4.50;3.08;;;;;;;20.18;64.10;98534.56;5115531;28;20040;-91
2023/06/30 00:02:42;;;;;;;4.32;2.92;;;;;;;20.09;64.93;98525.28;5117111;28;20035;-91
2023/06/30 00:05:08;;;;;;;4.20;2.85;;;;;;;19.98;65.43;98522.47;5114569;28;20046;-92
2023/06/30 00:07:34;;;;;;;4.53;3.35;;;;;;;19.96;66.16;98532.50;5115791;28;20088;-91
2023/06/30 00:10:01;;;;;;;4.50;3.17;;;;;;;19.85;66.49;98540.47;5114967;28;20044;-92
2023/06/30 00:12:27;;;;;;;6.25;3.13;;;;;;;19.73;68.35;98544.88;5116896;28;20048;-91
2023/06/30 00:14:53;;;;;;;5.13;3.28;;;;;;;19.61;68.86;98532.19;5115239;28;20493;-91
2023/06/30 00:17:19;;;;;;;6.15;3.30;;;;;;;19.64;69.22;98540.94;5116282;28;20456;-91
2023/06/30 00:19:44;;;;;;;6.28;3.38;;;;;;;19.38;67.36;98513.03;5119338;28;20039;-92
2023/06/30 00:22:11;;;;;;;5.07;3.17;;;;;;;19.47;67.64;98525.03;5115643;28;20090;-92
2023/06/30 00:24:37;;;;;;;5.93;3.42;;;;;;;19.48;69.10;98535.72;5114682;28;20036;-91
2023/06/30 00:27:04;;;;;;;5.63;3.30;;;;;;;19.44;68.66;98507.22;5115409;28;20085;-91
2023/06/30 00:29:30;;;;;;;5.78;3.42;;;;;;;19.50;69.43;98539.19;5115782;28;20032;-92
2023/06/30 00:31:56;;;;;;;6.47;3.75;;;;;;;19.44;70.46;98531.50;5115107;28;20039;-92
2023/06/30 00:34:22;;;;;;;7.80;3.65;;;;;;;19.33;71.92;98535.88;5117309;28;20067;-93
2023/06/30 00:36:47;;;;;;;7.60;3.97;;;;;;;19.18;71.75;98526.97;5116441;28;20101;-93
2023/06/30 00:39:13;;;;;;;5.70;3.35;;;;;;;19.17;72.16;98509.94;5116440;28;20576;-90
2023/06/30 00:41:39;;;;;;;5.78;3.30;;;;;;;19.19;72.63;98524.19;5115423;28;20130;-90
2023/06/30 00:44:06;;;;;;;5.90;3.20;;;;;;;19.24;72.48;98534.66;5120959;28;20044;-91
2023/06/30 00:46:32;;;;;;;5.00;3.45;;;;;;;19.15;72.94;98533.44;5100941;28;20036;-92
2023/06/30 00:48:58;;;;;;;5.25;3.38;;;;;;;19.07;71.79;98517.75;5100174;28;20046;-92
2023/06/30 00:51:24;;;;;;;6.43;3.42;;;;;;;19.08;72.04;98518.63;5102182;28;20044;-92
2023/06/30 00:53:50;;;;;;;5.30;3.42;;;;;;;19.05;69.04;98506.22;5102506;28;20874;-91
2023/06/30 00:56:16;;;;;;;7.00;3.22;;;;;;;19.25;67.73;98517.50;5102146;28;20043;-91
2023/06/30 00:58:42;;;;;;;5.70;3.10;;;;;;;19.49;66.73;98525.78;5103232;28;20115;-92
2023/06/30 01:01:16;;;;;;;5.53;3.20;;;;;;;19.66;65.61;98527.34;5097471;28;20127;-90
2023/06/30 01:03:47;;;;;;;4.95;3.22;;;;;;;19.78;66.56;98542.75;5099409;28;20036;-91
2023/06/30 01:06:22;;;;;;;4.68;3.20;;;;;;;19.82;65.69;98522.66;5098513;28;20043;-90
2023/06/30 01:08:53;;;;;;;5.22;3.20;;;;;;;19.82;65.24;98506.47;5103153;28;20074;-92
2023/06/30 01:11:20;;;;;;;4.47;3.13;;;;;;;19.90;64.66;98530.22;5100401;28;20040;-92
2023/06/30 01:13:47;;;;;;;4.90;3.30;;;;;;;19.94;64.61;98536.28;5095882;28;20036;-92
2023/06/30 01:16:17;;;;;;;5.22;3.60;;;;;;;19.81;64.70;98523.63;5098348;28;20504;-92
2023/06/30 01:18:46;;;;;;;4.25;3.22;;;;;;;19.75;64.17;98513.25;5102737;28;20047;-91
2023/06/30 01:21:13;;;;;;;6.28;3.38;;;;;;;19.54;64.59;98490.41;5099595;28;20032;-92
2023/06/30 01:23:43;;;;;;;5.50;3.25;;;;;;;19.61;64.45;98503.38;5095732;28;20497;-90
2023/06/30 01:26:10;;;;;;;5.18;3.10;;;;;;;19.66;64.31;98500.38;5097372;28;20093;-91
2023/06/30 01:28:36;;;;;;;5.50;3.10;;;;;;;19.75;64.29;98504.31;5098939;28;20036;-89
2023/06/30 01:31:08;;;;;;;5.20;3.10;;;;;;;19.77;65.20;98507.75;5099052;28;20048;-90
2023/06/30 01:33:36;;;;;;;5.47;3.20;;;;;;;19.73;65.71;98501.69;5097093;28;20111;-91
2023/06/30 01:36:03;;;;;;;6.82;3.47;;;;;;;19.84;66.59;98519.84;5097752;28;20043;-91
2023/06/30 01:38:29;;;;;;;5.40;3.40;;;;;;;19.69;67.50;98505.53;5100514;28;20405;-91
2023/06/30 01:40:56;;;;;;;5.43;3.50;;;;;;;19.78;67.78;98521.16;5098598;28;20042;-92
2023/06/30 01:43:23;;;;;;;6.32;3.45;;;;;;;19.59;68.20;98508.03;5094843;28;20036;-91
2023/06/30 01:45:50;;;;;;;5.88;3.60;;;;;;;19.49;68.96;98502.38;5095206;28;20397;-90
2023/06/30 01:48:16;;;;;;;7.25;3.83;;;;;;;19.50;69.67;98516.75;5096998;28;20044;-91
2023/06/30 01:50:45;;;;;;;6.53;3.78;;;;;;;19.35;70.77;98518.63;5096752;28;20043;-90
2023/06/30 01:53:11;;;;;;;5.63;3.78;;;;;;;19.29;71.21;98513.66;5126033;27;20112;-91
2023/06/30 01:55:39;;;;;;;5.25;3.60;;;;;;;19.16;71.87;98508.22;5099498;28;20043;-91
2023/06/30 01:58:04;;;;;;;5.40;3.97;;;;;;;19.12;72.54;98509.38;5098405;28;20062;-93
2023/06/30 02:00:30;;;;;;;5.47;3.60;;;;;;;19.02;73.16;98514.53;5099122;28;20036;-90
2023/06/30 02:02:57;;;;;;;5.88;3.60;;;;;;;18.86;73.87;98490.38;5101500;28;20036;-90
2023/06/30 02:05:23;;;;;;;6.82;4.13;;;;;;;18.89;74.41;98510.91;5099898;28;20035;-90
2023/06/30 02:07:50;;;;;;;6.63;3.78;;;;;;;18.68;74.24;98484.34;5098363;28;20047;-91
2023/06/30 02:10:16;;;;;;;8.00;4.60;;;;;;;18.63;75.07;98483.78;5099795;28;20046;-90
2023/06/30 02:12:42;;;;;;;6.70;3.83;;;;;;;18.58;75.36;98477.81;5096796;28;20040;-90
2023/06/30 02:15:08;;;;;;;5.07;3.47;;;;;;;18.64;75.78;98496.28;5095024;28;20060;-92
2023/06/30 02:17:35;;;;;;;6.30;3.90;;;;;;;18.63;76.17;98489.19;5098473;28;20493;-91
2023/06/30 02:20:03;;;;;;;8.02;4.22;;;;;;;18.58;76.92;98487.72;5096239;28;20374;-91
2023/06/30 02:22:29;;;;;;;6.30;4.18;;;;;;;18.57;77.51;98492.25;5099725;28;20044;-92
2023/06/30 02:24:56;;;;;;;5.40;4.00;;;;;;;18.57;77.41;98489.56;5099041;28;20043;-91
2023/06/30 02:27:22;;;;;;;7.28;4.07;;;;;;;18.62;77.22;98503.59;5099209;28;20589;-89
2023/06/30 02:29:48;;;;;;;7.00;3.78;;;;;;;18.48;77.47;98492.84;5097493;28;20157;-91
2023/06/30 02:32:14;;;;;;;7.22;4.35;;;;;;;18.47;77.58;98499.19;5098008;28;20410;-89
2023/06/30 02:34:40;;;;;;;6.63;4.50;;;;;;;18.41;78.40;98494.19;5097810;28;20089;-92
2023/06/30 02:37:05;;;;;;;7.93;4.25;;;;;;;18.32;77.55;98471.41;5096708;28;20048;-90
2023/06/30 02:39:31;;;;;;;7.18;4.32;;;;;;;18.38;77.36;98507.84;5097024;28;20043;-90
2023/06/30 02:41:59;;;;;;;6.78;4.28;;;;;;;18.21;78.37;98479.31;5099574;28;20393;-90
2023/06/30 02:44:24;;;;;;;5.50;3.90;;;;;;;18.30;78.50;98502.09;5099822;28;20554;-91
2023/06/30 02:46:50;;;;;;;6.25;3.88;;;;;;;18.07;78.52;98469.41;5099642;28;20032;-90
2023/06/30 02:49:16;;;;;;;7.15;4.32;;;;;;;18.21;78.01;98496.31;5095277;28;20432;-90
2023/06/30 02:51:42;;;;;;;7.00;4.30;;;;;;;18.05;77.15;98479.41;5099549;28;20065;-90
2023/06/30 02:54:08;;;;;;;6.20;3.85;;;;;;;17.98;77.53;98470.00;5101161;28;20446;-91
2023/06/30 02:56:33;;;;;;;7.78;4.25;;;;;;;18.11;76.82;98503.25;5097326;28;20063;-90
2023/06/30 02:59:01;;;;;;;8.43;4.75;;;;;;;18.01;76.95;98492.19;5098082;28;20064;-92
2023/06/30 03:01:27;;;;;;;7.65;4.70;;;;;;;17.90;77.59;98480.34;5092894;28;20031;-90
2023/06/30 03:03:53;;;;;;;7.30;4.70;;;;;;;18.00;77.75;98487.78;5095441;28;20119;-91
2023/06/30 03:06:20;;;;;;;6.72;4.22;;;;;;;18.13;78.33;98500.44;5096457;28;20117;-90
2023/06/30 03:08:45;;;;;;;7.90;3.90;;;;;;;18.15;77.12;98488.66;5098361;28;20032;-91
2023/06/30 03:11:11;;;;;;;6.88;4.60;;;;;;;18.15;75.16;98475.19;5100375;28;20123;-90
2023/06/30 03:13:37;;;;;;;6.22;4.20;;;;;;;18.32;74.97;98475.94;5099430;28;20035;-90
2023/06/30 03:16:07;;;;;;;6.63;4.22;;;;;;;18.52;73.65;98490.81;5096961;28;20034;-91
2023/06/30 03:18:33;;;;;;;10.05;4.53;;;;;;;18.63;73.02;98489.19;5096133;28;20409;-90
2023/06/30 03:20:59;;;;;;;9.85;4.75;;;;;;;18.82;72.42;98498.78;5096982;28;20044;-92
2023/06/30 03:23:25;;;;;;;7.05;4.63;;;;;;;18.81;72.41;98495.22;5093424;28;21067;-92
2023/06/30 03:25:50;;;;;;;7.57;4.65;;;;;;;18.86;71.86;98489.53;5098178;28;20040;-91
2023/06/30 03:28:16;;;;;;;7.07;4.80;;;;;;;18.95;71.45;98501.53;5097936;28;20040;-90
2023/06/30 03:30:42;;;;;;;8.05;4.72;;;;;;;18.99;71.06;98503.94;5096839;28;20644;-91
2023/06/30 03:33:09;;;;;;;7.43;4.72;;;;;;;19.06;71.21;98510.66;5095909;28;20044;-89
2023/06/30 03:35:35;;;;;;;9.38;5.32;;;;;;;19.03;71.66;98496.50;5093800;28;20393;-91
2023/06/30 03:38:01;;;;;;;9.32;5.05;;;;;;;19.00;71.87;98480.56;5098525;28;20036;-89
2023/06/30 03:40:27;;;;;;;11.00;5.07;;;;;;;19.01;72.13;98484.97;5095434;28;20446;-89
2023/06/30 03:42:52;;;;;;;9.73;5.20;;;;;;;18.93;72.65;98469.28;5098989;28;20032;-90
2023/06/30 03:45:18;;;;;;;9.30;4.97;;;;;;;18.98;73.14;98475.25;5098156;28;20143;-91
2023/06/30 03:47:44;;;;;;;9.63;5.25;;;;;;;19.08;72.85;98484.47;5095224;28;20127;-90
2023/06/30 03:50:11;;;;;;;10.60;5.03;;;;;;;19.20;72.22;98490.00;5094733;28;20047;-91
2023/06/30 03:52:38;;;;;;;10.30;5.07;;;;;;;19.15;72.36;98478.66;5095419;28;20036;-90
2023/06/30 03:55:04;;;;;;;10.85;5.68;;;;;;;19.29;72.02;98490.25;5090460;28;21528;-90
2023/06/30 03:57:30;;;;;;;8.68;5.03;;;;;;;19.21;72.58;98472.84;5093523;28;20074;-91
2023/06/30 03:59:56;;;;;;;10.98;5.30;;;;;;;19.42;72.50;98502.91;5094399;28;20036;-90
2023/06/30 04:02:22;;;;;;;8.98;5.30;;;;;;;19.25;73.04;98469.84;5097537;28;20063;-90
2023/06/30 04:04:47;;;;;;;7.55;4.80;;;;;;;19.31;73.14;98478.50;5095074;28;20125;-91
2023/06/30 04:07:14;;;;;;;9.13;5.55;;;;;;;19.29;73.33;98473.22;5094802;28;20096;-91
2023/06/30 04:09:40;;;;;;;8.25;5.00;;;;;;;19.39;73.17;98486.94;5095916;28;20036;-90
2023/06/30 04:12:07;;;;;;;9.48;5.43;;;;;;;19.29;73.53;98471.38;5099180;28;20043;-90
2023/06/30 04:14:33;;;;;;;9.75;5.28;;;;;;;19.31;73.88;98476.66;5096364;28;20378;-91
2023/06/30 04:16:59;;;;;;;9.32;5.25;;;;;;;19.28;73.14;98460.72;5092110;28;20050;-91
2023/06/30 04:19:24;;;;;;;10.98;5.18;;;;;;;19.20;74.50;98444.19;5096716;28;20043;-91
2023/06/30 04:21:50;;;;;;;10.93;5.63;;;;;;;19.32;73.23;98464.91;5100892;28;20485;-91
2023/06/30 04:24:19;;;;;;;7.28;5.22;;;;;;;19.34;72.36;98462.97;5098645;28;20039;-90
2023/06/30 04:26:45;;;;;;;9.75;5.40;;;;;;;19.35;70.81;98463.84;5102634;28;20036;-91
2023/06/30 04:29:10;;;;;;;9.50;5.15;;;;;;;19.15;71.15;98455.28;5101980;28;20047;-91
2023/06/30 04:31:36;;;;;;;8.93;4.97;;;;;;;19.23;70.72;98454.75;5098936;28;20038;-90
2023/06/30 04:34:02;;;;;;;8.38;5.35;;;;;;;19.28;70.72;98458.88;5097414;28;20512;-90
2023/06/30 04:36:29;;;;;;;9.65;4.97;;;;;;;19.39;69.73;98454.59;5099762;28;20081;-90
2023/06/30 04:38:55;;;;;;;8.98;4.70;;;;;;;19.46;69.98;98455.88;5103291;28;20043;-90
2023/06/30 04:41:22;;;;;;;7.45;5.13;;;;;;;19.32;70.68;98423.59;5101830;28;20062;-90
2023/06/30 04:43:48;;;;;;;9.60;5.70;;;;;;;19.62;69.99;98453.84;5100576;28;20558;-90
2023/06/30 04:46:15;;;;;;;9.38;4.82;;;;;;;19.75;69.50;98458.44;5098534;28;20048;-91
2023/06/30 04:48:41;;;;;;;12.02;5.45;;;;;;;19.75;70.68;98445.81;5101938;28;20044;-91
2023/06/30 04:51:06;;;;;;;9.32;5.35;;;;;;;19.90;70.52;98450.13;5099920;28;20142;-90
2023/06/30 04:53:33;;;;;;;10.52;5.43;;;;;;;20.01;71.12;98456.59;5100064;28;20497;-91
2023/06/30 04:55:58;;;;;;;12.20;5.45;;;;;;;20.34;70.30;98434.41;5103334;28;20044;-88
2023/06/30 04:58:25;;;;;;;8.20;5.45;;;;;;;20.89;68.00;98437.66;5101006;28;20097;-92
2023/06/30 05:00:51;;;;;;;10.50;5.88;;;;;;;21.32;66.24;98434.41;5100550;28;20039;-90
2023/06/30 05:03:19;;;;;;;9.20;5.38;;;;;;;21.70;64.91;98441.41;5103266;28;20040;-90
2023/06/30 05:05:44;;;;;;;9.00;4.95;;;;;;;21.84;63.27;98418.69;5103986;28;20097;-91
2023/06/30 05:08:10;;;;;;;10.13;5.40;;;;;;;22.40;61.90;98442.25;5100474;28;20036;-92
2023/06/30 05:10:36;;;;;;;7.60;5.43;;;;;;;22.62;59.20;98425.97;5101713;28;20066;-92
2023/06/30 05:13:02;;;;;;;7.10;4.60;;;;;;;22.73;58.56;98450.34;5101197;28;20097;-91
2023/06/30 05:15:30;;;;;;;9.20;5.57;;;;;;;22.19;60.61;98426.72;5096971;28;20067;-92
2023/06/30 05:17:56;;;;;;;8.32;5.20;;;;;;;22.09;61.39;98414.88;5098325;28;20031;-91
2023/06/30 05:20:22;;;;;;;10.05;6.05;;;;;;;22.46;59.82;98436.34;5134037;27;20450;-92
2023/06/30 05:22:48;;;;;;;10.40;5.40;;;;;;;22.15;61.18;98450.47;5101720;28;20035;-91
2023/06/30 05:25:14;;;;;;;8.82;5.95;;;;;;;22.47;60.86;98438.06;5105001;28;20489;-90
2023/06/30 05:27:39;;;;;;;11.95;6.18;;;;;;;22.59;59.65;98422.66;5102009;28;20035;-91
2023/06/30 05:30:07;;;;;;;11.13;5.75;;;;;;;22.21;61.28;98424.75;5101956;28;20047;-92
2023/06/30 05:32:35;;;;;;;11.05;6.25;;;;;;;22.45;61.05;98429.22;5098188;28;20150;-92
2023/06/30 05:35:00;;;;;;;9.93;5.77;;;;;;;22.73;60.00;98420.53;5098914;28;20094;-90
2023/06/30 05:37:26;;;;;;;12.27;6.95;;;;;;;22.83;61.61;98431.47;5098807;28;20273;-91
2023/06/30 05:39:52;;;;;;;10.02;6.00;;;;;;;23.17;60.46;98424.09;5099585;28;21327;-91
2023/06/30 05:42:18;;;;;;;9.52;6.00;;;;;;;23.03;60.65;98434.41;5098882;28;20120;-91
2023/06/30 05:44:44;;;;;;;9.80;5.82;;;;;;;23.05;60.23;98422.44;5100133;28;20067;-91
2023/06/30 05:47:10;;;;;;;14.43;7.35;;;;;;;22.93;61.64;98424.28;5097475;28;20127;-91
2023/06/30 05:49:38;;;;;;;12.32;6.70;;;;;;;23.15;60.44;98419.81;5102742;28;20046;-91
2023/06/30 05:52:07;;;;;;;11.57;6.23;;;;;;;23.24;59.95;98399.19;5097360;28;20054;-91
2023/06/30 05:54:32;;;;;;;12.10;7.20;;;;;;;22.51;62.33;98429.56;5094463;28;20028;-90
2023/06/30 05:56:58;;;;;;;16.30;7.05;;;;;;;22.58;64.22;98426.38;5103764;28;20040;-91
2023/06/30 05:59:25;;;;;;;13.27;6.90;;;;;;;22.94;61.92;98414.28;5098676;28;21067;-92
2023/06/30 06:01:51;;;;;;;12.05;7.10;;;;;;;23.30;60.52;98428.50;5098933;28;20063;-90
2023/06/30 06:04:18;;;;;;;11.95;6.97;;;;;;;22.91;61.62;98417.28;5097841;28;20060;-91
2023/06/30 06:06:45;;;;;;;12.32;6.55;;;;;;;22.97;61.80;98424.91;5098585;28;20051;-90
2023/06/30 06:09:11;;;;;;;12.07;6.95;;;;;;;22.86;62.90;98420.38;5096651;28;20559;-91
2023/06/30 06:11:37;;;;;;;11.18;6.65;;;;;;;23.21;62.62;98438.28;5098319;28;20035;-91
2023/06/30 06:14:03;;;;;;;10.85;7.07;;;;;;;23.44;61.13;98411.03;5101412;28;20383;-91
2023/06/30 06:16:29;;;;;;;12.82;7.60;;;;;;;23.64;60.13;98421.06;5101433;28;20056;-91
2023/06/30 06:18:55;;;;;;;13.50;8.00;;;;;;;23.60;61.01;98429.59;5099457;28;20109;-91
2023/06/30 06:21:25;;;;;;;14.43;7.50;;;;;;;23.82;59.71;98436.78;5099896;28;20093;-92
2023/06/30 06:23:53;;;;;;;17.15;7.90;;;;;;;23.26;61.55;98427.03;5097915;28;20130;-91
2023/06/30 06:26:18;;;;;;;15.70;7.93;;;;;;;23.41;62.03;98435.72;5097507;28;20036;-90
2023/06/30 06:28:44;;;;;;;14.57;8.00;;;;;;;23.81;60.50;98408.72;5096830;28;20036;-92
2023/06/30 06:31:10;;;;;;;13.88;7.65;;;;;;;24.14;59.74;98412.22;5095655;28;20953;-92
2023/06/30 06:33:36;;;;;;;14.00;8.73;;;;;;;24.17;59.99;98436.38;5095811;28;20052;-91
2023/06/30 06:36:02;;;;;;;17.10;9.27;;;;;;;24.31;60.24;98438.75;5129305;27;20043;-92
2023/06/30 06:38:28;;;;;;;16.08;9.18;;;;;;;24.57;59.86;98438.28;5098245;28;20040;-91
2023/06/30 06:40:55;;;;;;;18.00;8.65;;;;;;;24.73;58.13;98416.88;5099458;28;20131;-90
2023/06/30 06:43:26;;;;;;;16.52;9.95;;;;;;;25.08;57.98;98458.16;5096675;28;20078;-90
2023/06/30 06:45:51;;;;;;;16.48;9.43;;;;;;;25.44;56.75;98453.94;5098738;28;20032;-92
2023/06/30 06:48:22;;;;;;;20.15;9.65;;;;;;;25.57;55.57;98440.03;5096861;28;20054;-91
2023/06/30 06:50:49;;;;;;;16.48;8.77;;;;;;;25.41;57.39;98460.50;5098991;27;20040;-90
2023/06/30 06:53:18;;;;;;;15.30;8.55;;;;;;;25.51;58.64;98465.09;5097275;27;20439;-91
2023/06/30 06:55:45;;;;;;;19.42;8.38;;;;;;;25.41;57.26;98470.53;5098501;27;20093;-91
2023/06/30 06:58:13;;;;;;;18.85;9.68;;;;;;;25.26;57.28;98471.97;5099300;27;20042;-91
2023/06/30 07:00:39;;;;;;;20.10;9.77;;;;;;;24.99;58.83;98457.16;5089117;28;20051;-92
2023/06/30 07:03:05;;;;;;;18.13;9.70;;;;;;;24.82;59.63;98455.13;5076084;28;20040;-91
2023/06/30 07:05:31;;;;;;;16.02;8.93;;;;;;;24.76;60.72;98470.97;5089354;28;20041;-91
2023/06/30 07:07:57;;;;;;;17.90;9.43;;;;;;;24.86;60.65;98465.56;5089554;28;20044;-92
2023/06/30 07:10:23;;;;;;;18.27;9.95;;;;;;;24.92;60.46;98461.44;5089774;28;20535;-91
2023/06/30 07:12:49;;;;;;;18.38;10.50;;;;;;;24.92;60.24;98465.00;5096308;27;20039;-91
2023/06/30 07:15:16;;;;;;;18.65;10.10;;;;;;;24.86;60.62;98456.56;5088457;28;20039;-93
2023/06/30 07:17:42;;;;;;;19.75;9.82;;;;;;;25.23;60.22;98477.69;5095777;28;20039;-92
2023/06/30 07:20:09;;;;;;;21.67;9.93;;;;;;;25.43;59.40;98468.53;5105398;27;20047;-93
2023/06/30 07:22:34;;;;;;;17.48;10.05;;;;;;;26.06;57.93;98461.75;5105834;27;20062;-92
2023/06/30 07:25:02;;;;;;;20.40;10.38;;;;;;;26.55;56.02;98448.81;5094759;28;20067;-91
2023/06/30 07:27:28;;;;;;;21.10;10.43;;;;;;;26.58;55.60;98445.81;5095293;28;20044;-92
2023/06/30 07:29:53;;;;;;;21.05;9.80;;;;;;;26.89;54.86;98457.28;5094042;28;20054;-90
2023/06/30 07:32:21;;;;;;;18.38;10.43;;;;;;;27.03;54.24;98453.16;5092316;28;20571;-90
2023/06/30 07:34:47;;;;;;;20.13;11.00;;;;;;;27.27;54.18;98458.06;5094356;28;20050;-92
2023/06/30 07:37:12;;;;;;;32.53;11.13;;;;;;;27.44;55.02;98462.66;5094344;28;21349;-90
2023/06/30 07:39:38;;;;;;;18.45;10.95;;;;;;;27.38;54.40;98479.66;5094211;28;20489;-92
2023/06/30 07:42:05;;;;;;;20.95;11.27;;;;;;;27.14;54.14;98466.59;5094212;28;20131;-93
2023/06/30 07:44:31;;;;;;;23.75;11.27;;;;;;;26.66;56.03;98459.56;5093850;28;20031;-92
2023/06/30 07:46:57;;;;;;;19.58;11.27;;;;;;;26.42;57.18;98460.91;5092833;28;20441;-93
2023/06/30 07:49:25;;;;;;;21.52;11.65;;;;;;;26.21;57.20;98443.94;5094521;28;20066;-92
2023/06/30 07:51:51;;;;;;;25.52;12.20;;;;;;;26.18;57.49;98445.09;5092932;28;20362;-90
2023/06/30 07:54:17;;;;;;;22.48;12.25;;;;;;;26.40;58.29;98459.34;5093986;28;20093;-90
2023/06/30 07:56:44;;;;;;;23.35;11.98;;;;;;;26.61;56.08;98443.66;5095741;28;20538;-93
2023/06/30 07:59:10;;;;;;;19.85;11.65;;;;;;;26.78;56.28;98442.00;5098676;28;20126;-92
2023/06/30 08:01:36;;;;;;;24.15;12.43;;;;;;;26.64;57.13;98458.84;5098465;28;20039;-91
2023/06/30 08:04:01;;;;;;;27.20;12.45;;;;;;;27.22;55.92;98452.22;5098780;28;20077;-91
2023/06/30 08:06:29;;;;;;;19.70;10.90;;;;;;;27.65;53.55;98458.72;5097606;28;20043;-91
2023/06/30 08:08:54;;;;;;;18.00;11.10;;;;;;;27.61;53.22;98428.16;5097768;28;20540;-91
2023/06/30 08:11:20;;;;;;;20.65;11.02;;;;;;;27.66;54.22;98433.16;5087638;28;20123;-93
2023/06/30 08:13:46;;;;;;;24.98;11.50;;;;;;;27.51;54.53;98451.13;5089211;27;20036;-91
2023/06/30 08:16:12;;;;;;;24.30;11.40;;;;;;;27.62;54.47;98453.59;5095676;28;20093;-92
2023/06/30 08:18:38;;;;;;;23.00;11.77;;;;;;;27.58;54.84;98447.59;5097418;28;20039;-91
2023/06/30 08:21:04;;;;;;;20.50;11.95;;;;;;;27.59;55.12;98438.38;5088613;28;20071;-92
2023/06/30 08:23:31;;;;;;;21.10;12.65;;;;;;;27.15;57.17;98442.88;5086409;27;20080;-92
2023/06/30 08:25:57;;;;;;;27.02;13.02;;;;;;;26.52;57.84;98452.69;5097366;28;20036;-92
2023/06/30 08:28:23;;;;;;;23.65;11.75;;;;;;;27.05;56.98;98456.59;5096708;28;20390;-93
2023/06/30 08:30:49;;;;;;;20.50;11.32;;;;;;;27.38;56.50;98478.81;5095914;28;20556;-92
2023/06/30 08:33:14;;;;;;;21.00;11.23;;;;;;;27.46;56.41;98465.25;5096782;28;20135;-92
2023/06/30 08:35:40;;;;;;;25.92;12.48;;;;;;;26.85;57.43;98474.97;5097719;28;20554;-92
2023/06/30 08:38:06;;;;;;;22.50;12.43;;;;;;;26.60;58.48;98466.47;5097460;28;20043;-93
2023/06/30 08:40:33;;;;;;;22.15;11.77;;;;;;;26.82;59.52;98469.81;5097028;28;20855;-92
2023/06/30 08:43:04;;;;;;;20.70;12.63;;;;;;;26.93;58.54;98463.28;5097353;28;20051;-92
2023/06/30 08:45:30;;;;;;;24.85;13.45;;;;;;;26.42;59.69;98471.81;5097681;28;20427;-93
2023/06/30 08:48:02;;;;;;;23.73;12.27;;;;;;;26.82;59.63;98478.00;5095643;28;20036;-92
2023/06/30 08:50:28;;;;;;;22.88;12.35;;;;;;;27.13;58.59;98474.94;5097159;28;20058;-91
2023/06/30 08:52:55;;;;;;;24.42;12.65;;;;;;;27.56;57.46;98454.22;5095679;28;20035;-91
2023/06/30 08:55:21;;;;;;;29.27;13.70;;;;;;;27.95;56.48;98446.53;5096538;28;20080;-91
2023/06/30 08:57:48;;;;;;;26.02;12.98;;;;;;;28.02;55.60;98444.91;5095994;28;20443;-90
2023/06/30 09:00:15;;;;;;;24.77;13.17;;;;;;;27.94;57.25;98455.78;5094521;28;20519;-92
2023/06/30 09:02:42;;;;;;;22.88;13.35;;;;;;;27.96;56.56;98461.94;5096595;28;20127;-91
2023/06/30 09:05:09;;;;;;;24.60;13.82;;;;;;;28.11;56.09;98443.06;5096710;28;20122;-91
2023/06/30 09:07:40;;;;;;;24.08;13.05;;;;;;;28.38;54.91;98449.38;5095544;28;20488;-91
2023/06/30 09:10:09;;;;;;;25.08;13.60;;;;;;;28.32;55.34;98439.94;5095271;28;20039;-92
2023/06/30 09:12:35;;;;;;;24.13;13.80;;;;;;;28.52;53.69;98450.66;5096656;28;20123;-92
2023/06/30 09:15:04;;;;;;;25.17;12.98;;;;;;;28.51;54.70;98422.47;5096501;27;20184;-90
2023/06/30 09:17:31;;;;;;;28.15;13.88;;;;;;;28.16;54.51;98420.72;5099442;28;20050;-90
2023/06/30 09:19:57;;;;;;;22.65;12.73;;;;;;;28.28;54.29;98441.31;5095888;28;20401;-93
2023/06/30 09:22:22;;;;;;;26.92;13.27;;;;;;;27.80;55.40;98434.44;5096760;28;20036;-91
2023/06/30 09:24:49;;;;;;;23.13;13.43;;;;;;;27.97;54.56;98435.44;5096743;28;20096;-92
2023/06/30 09:27:16;;;;;;;24.73;13.43;;;;;;;28.31;53.67;98418.25;5096426;28;20055;-90
2023/06/30 09:29:42;;;;;;;24.17;12.88;;;;;;;28.69;51.96;98403.19;5095004;28;20035;-90
2023/06/30 09:32:09;;;;;;;23.50;12.73;;;;;;;28.81;50.90;98407.34;5094055;28;20093;-90
2023/06/30 09:34:35;;;;;;;22.17;12.67;;;;;;;29.37;50.50;98423.25;5094725;28;20112;-93
2023/06/30 09:37:01;;;;;;;27.73;13.65;;;;;;;29.73;48.77;98406.47;5095482;28;20036;-91
2023/06/30 09:39:27;;;;;;;27.65;13.55;;;;;;;30.22;47.65;98414.63;5095282;28;20036;-90
2023/06/30 09:41:53;;;;;;;26.73;13.00;;;;;;;30.14;46.17;98417.38;5096670;28;20081;-93
2023/06/30 09:44:20;;;;;;;25.70;13.10;;;;;;;30.41;45.61;98414.25;5095977;28;20685;-93
2023/06/30 09:46:46;;;;;;;23.95;12.45;;;;;;;30.68;44.24;98401.09;5093925;28;20074;-91
2023/06/30 09:49:24;;;;;;;25.13;13.73;;;;;;;30.84;44.42;98408.41;5095942;28;20040;-93
2023/06/30 09:51:50;;;;;;;24.35;13.48;;;;;;;30.87;45.28;98394.34;5094603;28;20043;-93
2023/06/30 09:54:17;;;;;;;22.63;12.75;;;;;;;31.09;43.49;98387.19;5096862;28;20043;-91
2023/06/30 09:56:45;;;;;;;25.02;13.20;;;;;;;31.11;41.46;98388.69;5093377;28;20036;-92
2023/06/30 09:59:11;;;;;;;29.55;14.15;;;;;;;30.62;43.27;98368.88;5096067;28;20042;-92
2023/06/30 10:01:37;;;;;;;25.52;14.23;;;;;;;30.22;43.54;98373.50;5093319;28;20036;-93
2023/06/30 10:04:03;;;;;;;26.40;13.93;;;;;;;29.20;46.46;98390.34;5094770;28;20093;-93
2023/06/30 10:06:31;;;;;;;26.00;13.77;;;;;;;29.40;46.36;98385.41;5096335;28;20047;-92
2023/06/30 10:09:00;;;;;;;24.20;13.70;;;;;;;29.46;45.91;98367.44;5093476;28;20036;-91
2023/06/30 10:11:29;;;;;;;30.73;14.35;;;;;;;28.88;46.96;98358.28;5094834;28;20431;-93
2023/06/30 10:13:58;;;;;;;26.55;14.68;;;;;;;28.35;49.10;98354.84;5095490;28;20039;-91
2023/06/30 10:16:25;;;;;;;30.35;14.65;;;;;;;28.52;49.92;98352.19;5093590;28;20031;-92
2023/06/30 10:18:53;;;;;;;27.42;13.45;;;;;;;28.63;50.37;98360.13;5092857;28;20035;-92
2023/06/30 10:21:19;;;;;;;24.75;13.20;;;;;;;29.42;48.32;98344.16;5096197;28;20135;-91
2023/06/30 10:23:49;;;;;;;28.20;13.20;;;;;;;30.10;48.35;98356.53;5096719;28;20047;-93
2023/06/30 10:26:18;;;;;;;21.15;11.73;;;;;;;30.54;46.81;98345.09;5096007;28;20184;-91
2023/06/30 10:28:44;;;;;;;23.33;12.60;;;;;;;30.61;46.31;98318.63;5095985;28;20039;-92
2023/06/30 10:31:10;;;;;;;22.33;13.10;;;;;;;30.59;46.15;98325.34;5093781;28;20416;-92
2023/06/30 10:33:37;;;;;;;22.88;12.75;;;;;;;30.52;46.38;98332.59;5091722;28;20040;-91
2023/06/30 10:36:04;;;;;;;26.02;13.90;;;;;;;29.68;47.53;98331.09;5084111;28;20044;-91
2023/06/30 10:38:31;;;;;;;22.80;13.05;;;;;;;29.95;48.37;98319.91;5077490;28;20130;-92
2023/06/30 10:41:13;;;;;;;23.27;13.02;;;;;;;30.16;47.98;98336.66;5076309;28;20036;-91
2023/06/30 10:44:06;;;;;;;24.85;13.60;;;;;;;30.21;48.23;98338.84;5071395;28;20052;-92
2023/06/30 10:46:46;;;;;;;22.92;12.80;;;;;;;30.00;48.46;98336.72;5077340;28;20043;-91
2023/06/30 10:49:20;;;;;;;26.05;13.73;;;;;;;29.90;47.49;98353.34;5075868;28;20032;-90
2023/06/30 10:51:49;;;;;;;22.23;12.82;;;;;;;30.05;48.30;98339.78;5076513;28;20032;-93
2023/06/30 10:54:23;;;;;;;23.30;13.07;;;;;;;30.46;47.58;98332.25;5079144;28;20043;-91
2023/06/30 10:56:51;;;;;;;20.67;13.02;;;;;;;30.14;48.03;98329.63;5079524;28;20063;-92
2023/06/30 10:59:18;;;;;;;;;;;;;;;29.96;48.92;98322.50;5082712;28;20497;-94
2023/06/30 11:02:11;;;;;;;24.30;13.70;;;;;;;29.78;48.43;98320.00;5078238;28;19927;-93
2023/06/30 11:04:38;;;;;;;26.45;13.30;;;;;;;29.23;49.56;98302.41;5080376;28;20047;-92
2023/06/30 11:07:06;;;;;;;27.33;14.07;;;;;;;28.66;50.63;98305.06;5080909;28;20508;-91
2023/06/30 11:09:46;;;;;;;;;;;;;;;28.46;52.10;98312.66;5075036;28;20127;-93
2023/06/30 11:12:14;;;;;;;24.42;13.70;;;;;;;28.23;52.57;98296.84;5077518;28;19966;-91
2023/06/30 11:14:52;;;;;;;26.55;14.52;;;;;;;28.35;52.22;98294.69;5078933;28;20036;-91
2023/06/30 11:17:18;;;;;;;23.98;13.98;;;;;;;28.53;51.44;98289.13;5074665;28;20040;-91
2023/06/30 11:19:57;;;;;;;29.88;14.07;;;;;;;28.47;50.93;98254.19;5079121;28;20093;-92
2023/06/30 11:22:25;;;;;;;25.70;13.95;;;;;;;28.96;50.05;98261.66;5076863;28;20405;-91
2023/06/30 11:24:51;;;;;;;25.33;14.17;;;;;;;29.51;48.39;98239.00;5075199;28;20040;-91